Rocky Mountain Metropolitan Airport Denver US
ICAO: KBJC
IATA: BJC
Category: Medium
Scheduled Services: No

Elevation: 5673 ft
TransAlt. 18000 ft.

Airport Communications:
DENVER APP/DEP:126.1
ATIS:126.25
CTAF:118.6
GND:121.7
TWR:118.6

KBJC Zoom In..

Runways:

(A) RW 02 length 3600 ft width 75 ft
---- / hdg 23

(B) RW 11L length 9000 ft width 100 ft
---- / hdg 113

(C) RW 11R length 7002 ft width 75 ft
---- / hdg 113

(D) RW 20 length 3600 ft width 75 ft
---- / hdg 203

(E) RW 29L length 7002 ft width 75 ft
---- / hdg 293

(F) RW 29R length 9000 ft width 100 ft
ILS 111.70 / hdg 293

Location; KBJC
Day. 22 / Time. 00.45 Zulu
* Altimeter: 29.98
* Temperature: 23° c. 73.4°f.
* Wind from: 050° Speed 05 kn.
Dewpoint: 02° c.
Visibility: 30 Statute Miles.
Clouds: Scattered 1000 ft.
Clouds: Broken 22000 ft.

KBJC 220045Z 05005KT 30SM SCT100 BKN220 23/02 A2998


Wind From 050°
Speed 05 kn.

 
 
jpsmedia.com for Web Design SOUNDCLOUD worldairports.se 2018   terms of use